createdAt,value
2018-06-08T00:00:09.711Z,7.50
2018-06-08T00:01:09.773Z,7.30
2018-06-08T00:02:09.834Z,6.80
2018-06-08T00:03:09.899Z,7.10
2018-06-08T00:04:09.962Z,6.80
2018-06-08T00:05:10.023Z,7.50
2018-06-08T00:06:10.087Z,7.40
2018-06-08T00:07:10.148Z,7.20
2018-06-08T00:08:10.213Z,7.00
2018-06-08T00:09:10.272Z,7.10
2018-06-08T00:10:10.336Z,7.00
2018-06-08T00:11:10.397Z,7.30
2018-06-08T00:12:10.461Z,7.10
2018-06-08T00:13:10.522Z,7.10
2018-06-08T00:14:10.594Z,7.40
2018-06-08T00:15:10.648Z,6.80
2018-06-08T00:16:10.711Z,7.00
2018-06-08T00:17:10.773Z,6.90
2018-06-08T00:18:10.836Z,6.90
2018-06-08T00:19:10.896Z,7.50
2018-06-08T00:20:10.961Z,7.00
2018-06-08T00:21:11.022Z,7.40
2018-06-08T00:22:11.087Z,7.00
2018-06-08T00:23:11.147Z,7.60
2018-06-08T00:24:11.212Z,6.70
2018-06-08T00:25:11.271Z,7.10
2018-06-08T00:26:11.334Z,7.00
2018-06-08T00:27:11.397Z,7.50
2018-06-08T00:28:11.498Z,7.60
2018-06-08T00:29:11.521Z,7.20
2018-06-08T00:30:11.584Z,7.20
2018-06-08T00:31:11.646Z,7.30
2018-06-08T00:32:11.709Z,7.50
2018-06-08T00:33:11.769Z,7.00
2018-06-08T00:34:11.833Z,7.30
2018-06-08T00:35:11.895Z,7.60
2018-06-08T00:36:11.959Z,7.30
2018-06-08T00:37:12.020Z,7.30
2018-06-08T00:38:12.082Z,7.10
2018-06-08T00:39:12.145Z,6.80
2018-06-08T00:40:12.207Z,6.90
2018-06-08T00:41:12.271Z,6.90
2018-06-08T00:42:12.333Z,7.70
2018-06-08T00:43:12.394Z,7.10
2018-06-08T00:44:12.459Z,7.00
2018-06-08T00:45:12.520Z,7.10
2018-06-08T00:46:12.582Z,8.10
2018-06-08T00:47:12.645Z,7.10
2018-06-08T00:48:12.708Z,7.40
2018-06-08T00:49:12.768Z,6.90
2018-06-08T00:50:12.831Z,7.30
2018-06-08T00:51:12.894Z,7.60
2018-06-08T00:52:12.958Z,7.50
2018-06-08T00:53:13.020Z,7.20
2018-06-08T00:54:13.080Z,7.20
2018-06-08T00:55:13.144Z,7.70
2018-06-08T00:56:13.206Z,7.20
2018-06-08T00:57:13.267Z,7.30
2018-06-08T00:58:13.332Z,7.90
2018-06-08T00:59:13.394Z,7.40
2018-06-08T01:00:13.459Z,7.40
2018-06-08T01:01:13.517Z,7.30
2018-06-08T01:02:13.579Z,7.30
2018-06-08T01:03:13.642Z,7.30
2018-06-08T01:04:13.711Z,7.30
2018-06-08T01:05:13.766Z,7.90
2018-06-08T01:06:13.829Z,7.20
2018-06-08T01:07:13.895Z,7.60
2018-06-08T01:08:13.954Z,7.40
2018-06-08T01:09:14.015Z,7.40
2018-06-08T01:10:14.279Z,6.60
2018-06-08T01:11:14.142Z,7.50
2018-06-08T01:12:14.203Z,7.70
2018-06-08T01:13:14.267Z,7.20
2018-06-08T01:14:14.327Z,7.30
2018-06-08T01:15:14.391Z,7.60
2018-06-08T01:16:14.451Z,7.50
2018-06-08T01:17:14.513Z,7.80
2018-06-08T01:18:14.577Z,7.70
2018-06-08T01:19:14.643Z,7.90
2018-06-08T01:20:14.699Z,7.70
2018-06-08T01:21:14.778Z,7.70
2018-06-08T01:22:14.824Z,8.00
2018-06-08T01:23:14.887Z,8.20
2018-06-08T01:24:14.949Z,7.50
2018-06-08T01:25:15.013Z,7.70
2018-06-08T01:26:15.325Z,7.30
2018-06-08T01:27:15.136Z,7.90
2018-06-08T01:28:15.199Z,8.50
2018-06-08T01:29:15.260Z,8.10
2018-06-08T01:30:15.324Z,7.90
2018-06-08T01:31:15.403Z,8.20
2018-06-08T01:32:15.447Z,8.10
2018-06-08T01:33:15.511Z,7.70
2018-06-08T01:34:15.571Z,8.00
2018-06-08T01:35:15.633Z,8.00
2018-06-08T01:36:15.697Z,7.50
2018-06-08T01:37:15.757Z,8.10
2018-06-08T01:38:15.822Z,8.20
2018-06-08T01:39:15.883Z,8.70
2018-06-08T01:40:15.946Z,7.80
2018-06-08T01:41:16.009Z,8.60
2018-06-08T01:42:16.070Z,8.30
2018-06-08T01:43:16.132Z,8.30
2018-06-08T01:44:16.196Z,8.40
2018-06-08T01:45:16.255Z,8.20
2018-06-08T01:46:16.318Z,8.40
2018-06-08T01:47:16.380Z,8.30
2018-06-08T01:48:16.443Z,7.50
2018-06-08T01:49:16.503Z,8.50
2018-06-08T01:50:16.567Z,8.00
2018-06-08T01:51:16.630Z,8.50
2018-06-08T01:52:16.691Z,8.60
2018-06-08T01:53:16.752Z,8.40
2018-06-08T01:54:16.816Z,8.70
2018-06-08T01:55:16.876Z,8.30
2018-06-08T01:56:16.939Z,7.70
2018-06-08T01:57:16.998Z,8.10
2018-06-08T01:58:17.062Z,8.30
2018-06-08T01:59:17.125Z,8.10
2018-06-08T02:00:17.189Z,8.60
2018-06-08T02:01:17.247Z,8.60
2018-06-08T02:02:17.313Z,7.60
2018-06-08T02:03:17.373Z,9.00
2018-06-08T02:04:17.434Z,8.40
2018-06-08T02:05:17.499Z,7.80
2018-06-08T02:06:17.557Z,8.50
2018-06-08T02:07:17.620Z,8.80
2018-06-08T02:08:17.682Z,8.10
2018-06-08T02:09:17.745Z,8.80
2018-06-08T02:10:17.808Z,8.60
2018-06-08T02:11:17.869Z,9.30
2018-06-08T02:12:17.930Z,9.20
2018-06-08T02:13:17.991Z,8.80
2018-06-08T02:14:18.052Z,9.00
2018-06-08T02:15:18.116Z,8.80
2018-06-08T02:16:18.179Z,8.40
2018-06-08T02:17:18.240Z,8.50
2018-06-08T02:18:18.301Z,8.50
2018-06-08T02:19:18.370Z,8.90
2018-06-08T02:20:18.426Z,8.60
2018-06-08T02:21:18.486Z,8.60
2018-06-08T02:22:18.548Z,8.40
2018-06-08T02:23:18.615Z,9.10
2018-06-08T02:24:18.672Z,8.80
2018-06-08T02:25:18.735Z,8.90
2018-06-08T02:26:18.797Z,9.10
2018-06-08T02:27:18.860Z,8.80
2018-06-08T02:28:18.931Z,9.00
2018-06-08T02:29:18.981Z,8.60
2018-06-08T02:30:19.045Z,8.80
2018-06-08T02:31:19.106Z,9.30
2018-06-08T02:32:19.171Z,8.80
2018-06-08T02:33:19.232Z,9.20
2018-06-08T02:34:19.292Z,9.30
2018-06-08T02:35:19.376Z,9.30
2018-06-08T02:36:19.417Z,8.80
2018-06-08T02:37:19.478Z,9.50
2018-06-08T02:38:19.541Z,8.90
2018-06-08T02:39:19.602Z,8.70
2018-06-08T02:40:19.666Z,8.20
2018-06-08T02:41:19.727Z,9.10
2018-06-08T02:42:19.787Z,8.50
2018-06-08T02:43:19.854Z,9.20
2018-06-08T02:44:19.913Z,9.30
2018-06-08T02:45:19.972Z,8.80
2018-06-08T02:46:20.036Z,9.10
2018-06-08T02:47:20.097Z,8.80
2018-06-08T02:48:20.160Z,8.60
2018-06-08T02:49:20.221Z,9.00
2018-06-08T02:50:20.283Z,9.30
2018-06-08T02:51:20.347Z,8.90
2018-06-08T02:52:20.409Z,9.40
2018-06-08T02:53:20.468Z,8.70
2018-06-08T02:54:20.531Z,8.80
2018-06-08T02:55:20.593Z,8.70
2018-06-08T02:56:20.656Z,8.00
2018-06-08T02:57:20.717Z,8.80
2018-06-08T02:58:20.781Z,10.00
2018-06-08T02:59:20.841Z,10.60
2018-06-08T03:00:20.904Z,9.90
2018-06-08T03:01:21.217Z,9.20
2018-06-08T03:02:21.026Z,9.00
2018-06-08T03:03:21.089Z,8.80
2018-06-08T03:04:21.150Z,9.20
2018-06-08T03:05:21.232Z,9.50
2018-06-08T03:06:21.277Z,9.10
2018-06-08T03:07:21.337Z,9.40
2018-06-08T03:08:21.399Z,9.00
2018-06-08T03:09:21.460Z,8.70
2018-06-08T03:10:21.526Z,9.40
2018-06-08T03:11:21.585Z,9.20
2018-06-08T03:12:21.646Z,8.70
2018-06-08T03:13:21.709Z,9.10
2018-06-08T03:14:21.770Z,9.40
2018-06-08T03:15:21.831Z,9.40
2018-06-08T03:16:21.897Z,9.20
2018-06-08T03:17:21.958Z,9.00
2018-06-08T03:18:22.018Z,9.50
2018-06-08T03:19:22.082Z,9.40
2018-06-08T03:20:22.144Z,8.50
2018-06-08T03:21:22.205Z,9.30
2018-06-08T03:22:22.519Z,9.30
2018-06-08T03:23:22.330Z,9.40
2018-06-08T03:24:22.398Z,9.70
2018-06-08T03:25:22.453Z,10.50
2018-06-08T03:26:22.515Z,9.50
2018-06-08T03:27:22.578Z,9.50
2018-06-08T03:28:22.640Z,9.80
2018-06-08T03:29:22.702Z,9.20
2018-06-08T03:30:22.766Z,8.90
2018-06-08T03:31:22.827Z,8.40
2018-06-08T03:32:22.889Z,8.50
2018-06-08T03:33:22.951Z,8.90
2018-06-08T03:34:23.013Z,8.50
2018-06-08T03:35:23.075Z,9.40
2018-06-08T03:36:23.141Z,9.10
2018-06-08T03:37:23.199Z,8.50
2018-06-08T03:38:23.262Z,8.30
2018-06-08T03:39:23.323Z,8.80
2018-06-08T03:40:23.386Z,9.00
2018-06-08T03:41:23.447Z,9.60
2018-06-08T03:42:23.509Z,10.20
2018-06-08T03:43:23.572Z,9.70
2018-06-08T03:44:23.635Z,10.10
2018-06-08T03:45:23.697Z,9.40
2018-06-08T03:46:23.776Z,9.10
2018-06-08T03:47:23.820Z,9.40
2018-06-08T03:48:23.883Z,8.90
2018-06-08T03:49:23.944Z,8.60
2018-06-08T03:50:24.008Z,8.10
2018-06-08T03:51:24.069Z,9.10
2018-06-08T03:52:24.133Z,8.20
2018-06-08T03:53:24.208Z,8.40
2018-06-08T03:54:24.254Z,9.00
2018-06-08T03:55:24.316Z,8.90
2018-06-08T03:56:24.431Z,9.30
2018-06-08T03:57:24.441Z,9.00
2018-06-08T03:58:24.526Z,8.30
2018-06-08T03:59:24.565Z,8.70
2018-06-08T04:00:24.628Z,8.20
2018-06-08T04:01:24.722Z,8.70
2018-06-08T04:02:24.787Z,8.10
2018-06-08T04:03:24.816Z,8.60
2018-06-08T04:04:24.876Z,8.70
2018-06-08T04:05:24.936Z,8.50
2018-06-08T04:06:25.005Z,8.70
2018-06-08T04:07:25.061Z,8.70
2018-06-08T04:08:25.124Z,9.10
2018-06-08T04:09:25.184Z,8.60
2018-06-08T04:10:25.255Z,8.50
2018-06-08T04:11:25.308Z,9.00
2018-06-08T04:12:25.374Z,8.70
2018-06-08T04:13:25.433Z,8.50
2018-06-08T04:14:25.496Z,9.70
2018-06-08T04:15:25.575Z,9.20
2018-06-08T04:16:25.650Z,9.10
2018-06-08T04:17:25.684Z,9.00
2018-06-08T04:18:25.743Z,8.90
2018-06-08T04:19:25.807Z,8.80
2018-06-08T04:20:25.868Z,8.60
2018-06-08T04:21:25.928Z,9.20
2018-06-08T04:22:25.991Z,9.10
2018-06-08T04:23:26.054Z,9.30
2018-06-08T04:24:26.116Z,8.40
2018-06-08T04:25:26.179Z,9.00
2018-06-08T04:26:26.244Z,9.10
2018-06-08T04:27:26.301Z,8.50
2018-06-08T04:28:26.363Z,8.40
2018-06-08T04:29:26.424Z,8.90
2018-06-08T04:30:26.487Z,8.70
2018-06-08T04:31:26.574Z,9.20
2018-06-08T04:32:26.611Z,9.20
2018-06-08T04:33:26.672Z,8.90
2018-06-08T04:34:26.734Z,9.30
2018-06-08T04:35:26.797Z,9.60
2018-06-08T04:36:26.859Z,8.70
2018-06-08T04:37:26.920Z,9.00
2018-06-08T04:38:26.989Z,9.20
2018-06-08T04:39:27.047Z,8.20
2018-06-08T04:40:27.158Z,8.50
2018-06-08T04:41:27.168Z,8.70
2018-06-08T04:42:27.233Z,8.60
2018-06-08T04:43:27.293Z,9.00
2018-06-08T04:44:27.356Z,8.60
2018-06-08T04:45:27.418Z,8.80
2018-06-08T04:46:27.480Z,9.10
2018-06-08T04:47:27.549Z,9.00
2018-06-08T04:48:27.607Z,9.40
2018-06-08T04:49:27.667Z,9.00
2018-06-08T04:50:27.729Z,8.40
2018-06-08T04:51:27.791Z,8.60
2018-06-08T04:52:27.855Z,9.10
2018-06-08T04:53:27.915Z,9.00
2018-06-08T04:54:27.978Z,8.60
2018-06-08T04:55:28.040Z,9.20
2018-06-08T04:56:28.101Z,9.20
2018-06-08T04:57:28.162Z,9.00
2018-06-08T04:58:28.225Z,8.60
2018-06-08T04:59:28.292Z,8.90
2018-06-08T05:00:28.352Z,9.60
2018-06-08T05:01:28.415Z,9.50
2018-06-08T05:02:28.477Z,9.30
2018-06-08T05:03:28.538Z,10.40
2018-06-08T05:04:28.600Z,9.20
2018-06-08T05:05:28.730Z,9.50
2018-06-08T05:06:28.726Z,8.80
2018-06-08T05:07:28.802Z,8.50
2018-06-08T05:08:28.849Z,9.10
2018-06-08T05:09:28.911Z,9.20
2018-06-08T05:10:28.975Z,10.00
2018-06-08T05:11:29.038Z,9.10
2018-06-08T05:12:29.099Z,9.20
2018-06-08T05:13:29.470Z,8.70
2018-06-08T05:14:29.223Z,9.20
2018-06-08T05:15:29.286Z,8.80
2018-06-08T05:16:29.350Z,9.10
2018-06-08T05:17:29.411Z,9.90
2018-06-08T05:18:29.473Z,9.50
2018-06-08T05:19:29.544Z,8.90
2018-06-08T05:20:29.598Z,9.30
2018-06-08T05:21:29.661Z,9.30
2018-06-08T05:22:29.723Z,9.70
2018-06-08T05:23:29.787Z,8.60
2018-06-08T05:24:29.848Z,9.40
2018-06-08T05:25:29.910Z,9.00
2018-06-08T05:26:29.973Z,9.50
2018-06-08T05:27:30.037Z,9.40
2018-06-08T05:28:30.099Z,8.90
2018-06-08T05:29:30.160Z,9.60
2018-06-08T05:30:30.221Z,8.90
2018-06-08T05:31:30.287Z,9.60
2018-06-08T05:32:30.350Z,9.20
2018-06-08T05:33:30.411Z,9.30
2018-06-08T05:34:30.473Z,9.40
2018-06-08T05:35:30.538Z,9.70
2018-06-08T05:36:30.599Z,9.00
2018-06-08T05:37:31.307Z,9.10
2018-06-08T05:38:30.725Z,9.50
2018-06-08T05:39:30.787Z,9.50
2018-06-08T05:40:30.852Z,9.60
2018-06-08T05:41:30.914Z,10.10
2018-06-08T05:42:31.026Z,9.70
2018-06-08T05:43:31.039Z,9.70
2018-06-08T05:44:31.102Z,10.20
2018-06-08T05:45:31.165Z,9.60
2018-06-08T05:46:31.229Z,10.30
2018-06-08T05:47:31.297Z,9.30
2018-06-08T05:48:31.358Z,9.80
2018-06-08T05:49:31.416Z,9.60
2018-06-08T05:50:31.479Z,9.80
2018-06-08T05:51:31.542Z,10.00
2018-06-08T05:52:31.606Z,9.60
2018-06-08T05:53:31.667Z,10.00
2018-06-08T05:54:31.731Z,9.60
2018-06-08T05:55:31.795Z,9.40
2018-06-08T05:56:31.858Z,10.00
2018-06-08T05:57:31.919Z,10.50
2018-06-08T05:58:31.983Z,10.10
2018-06-08T05:59:32.046Z,10.60
2018-06-08T06:00:32.109Z,10.10
2018-06-08T06:01:32.213Z,10.70
2018-06-08T06:02:32.236Z,10.60
2018-06-08T06:03:32.303Z,11.10
2018-06-08T06:04:32.363Z,10.80
2018-06-08T06:05:32.425Z,10.40
2018-06-08T06:06:32.489Z,10.60
2018-06-08T06:07:32.552Z,9.90
2018-06-08T06:08:32.620Z,9.90
2018-06-08T06:09:32.680Z,9.90
2018-06-08T06:10:32.745Z,10.40
2018-06-08T06:11:32.807Z,10.70
2018-06-08T06:12:32.869Z,10.70
2018-06-08T06:13:32.933Z,10.70
2018-06-08T06:14:32.996Z,10.80
2018-06-08T06:15:33.061Z,10.60
2018-06-08T06:16:33.125Z,10.40
2018-06-08T06:17:33.187Z,10.70
2018-06-08T06:18:33.248Z,10.60
2018-06-08T06:19:33.313Z,10.50
2018-06-08T06:20:33.703Z,10.10
2018-06-08T06:21:33.441Z,10.20
2018-06-08T06:22:33.502Z,10.60
2018-06-08T06:23:33.566Z,9.80
2018-06-08T06:24:33.630Z,10.70
2018-06-08T06:25:33.701Z,10.60
2018-06-08T06:26:33.760Z,10.90
2018-06-08T06:27:34.309Z,10.90
2018-06-08T06:28:33.884Z,10.90
2018-06-08T06:29:33.947Z,11.60
2018-06-08T06:30:34.010Z,10.70
2018-06-08T06:31:34.075Z,11.00
2018-06-08T06:32:34.138Z,11.70
2018-06-08T06:33:34.201Z,11.10
2018-06-08T06:34:34.264Z,12.30
2018-06-08T06:35:34.328Z,12.50
2018-06-08T06:36:34.392Z,11.40
2018-06-08T06:37:34.453Z,12.00
2018-06-08T06:38:34.519Z,11.20
2018-06-08T06:39:34.630Z,10.80
2018-06-08T06:40:34.646Z,10.80
2018-06-08T06:41:34.711Z,11.30
2018-06-08T06:42:34.773Z,11.50
2018-06-08T06:43:34.837Z,11.00
2018-06-08T06:44:34.902Z,12.00
2018-06-08T06:45:34.964Z,11.40
2018-06-08T06:46:35.029Z,11.10
2018-06-08T06:47:35.094Z,11.30
2018-06-08T06:48:35.523Z,12.00
2018-06-08T06:49:35.219Z,11.40
2018-06-08T06:50:35.282Z,12.30
2018-06-08T06:51:35.352Z,12.60
2018-06-08T06:52:35.412Z,12.70
2018-06-08T06:53:35.476Z,11.90
2018-06-08T06:54:35.539Z,12.20
2018-06-08T06:55:35.602Z,13.20
2018-06-08T06:56:35.667Z,12.70
2018-06-08T06:57:35.732Z,12.50
2018-06-08T06:58:35.794Z,12.10
2018-06-08T06:59:35.859Z,11.30
2018-06-08T07:00:35.925Z,12.50
2018-06-08T07:01:35.986Z,13.00
2018-06-08T07:02:36.050Z,12.30
2018-06-08T07:03:36.114Z,12.50
2018-06-08T07:04:36.178Z,12.90
2018-06-08T07:05:36.240Z,12.10
2018-06-08T07:06:36.307Z,13.10
2018-06-08T07:07:36.368Z,13.10
2018-06-08T07:08:36.431Z,13.10
2018-06-08T07:09:36.495Z,12.10
2018-06-08T07:10:36.559Z,11.50
2018-06-08T07:11:36.624Z,12.20
2018-06-08T07:12:36.695Z,12.00
2018-06-08T07:13:36.751Z,12.00
2018-06-08T07:14:36.814Z,11.90
2018-06-08T07:15:36.879Z,12.80
2018-06-08T07:16:36.945Z,12.30
2018-06-08T07:17:37.006Z,12.30
2018-06-08T07:18:37.106Z,12.90
2018-06-08T07:19:37.137Z,13.10
2018-06-08T07:20:37.277Z,12.80
2018-06-08T07:21:37.260Z,12.60
2018-06-08T07:22:37.327Z,12.20
2018-06-08T07:23:37.390Z,12.90
2018-06-08T07:24:37.455Z,12.40
2018-06-08T07:25:37.518Z,13.00
2018-06-08T07:26:37.580Z,12.70
2018-06-08T07:27:37.649Z,13.20
2018-06-08T07:28:37.711Z,13.40
2018-06-08T07:29:37.773Z,13.00
2018-06-08T07:30:37.839Z,12.70
2018-06-08T07:31:37.959Z,12.50
2018-06-08T07:32:37.966Z,12.70
2018-06-08T07:33:38.031Z,12.50
2018-06-08T07:34:38.095Z,12.90
2018-06-08T07:35:38.159Z,12.40
2018-06-08T07:36:38.224Z,12.10
2018-06-08T07:37:38.290Z,12.80
2018-06-08T07:38:38.352Z,12.00
2018-06-08T07:39:38.799Z,12.80
2018-06-08T07:40:38.510Z,12.40
2018-06-08T07:41:38.555Z,12.20
2018-06-08T07:42:38.611Z,12.50
2018-06-08T07:43:38.676Z,11.50
2018-06-08T07:44:39.321Z,12.40
2018-06-08T07:45:38.805Z,12.00
2018-06-08T07:46:39.211Z,12.60
2018-06-08T07:47:38.936Z,11.70
2018-06-08T07:48:39.004Z,11.90
2018-06-08T07:49:39.064Z,11.30
2018-06-08T07:50:39.132Z,11.90
2018-06-08T07:51:39.206Z,12.10
2018-06-08T07:52:39.268Z,12.40
2018-06-08T07:53:39.323Z,12.10
2018-06-08T07:54:39.388Z,12.20
2018-06-08T07:55:39.454Z,12.40
2018-06-08T07:56:39.519Z,11.10
2018-06-08T07:57:39.584Z,12.20
2018-06-08T07:58:39.649Z,11.80
2018-06-08T07:59:39.714Z,11.60
2018-06-08T08:00:39.779Z,12.50
2018-06-08T08:01:40.209Z,11.40
2018-06-08T08:02:39.910Z,11.90
2018-06-08T08:03:39.974Z,11.70
2018-06-08T08:04:40.040Z,11.60
2018-06-08T08:05:40.105Z,12.70
2018-06-08T08:06:40.170Z,12.40
2018-06-08T08:07:40.235Z,12.40
2018-06-08T08:08:40.611Z,11.50
2018-06-08T08:09:40.366Z,12.00
2018-06-08T08:10:40.430Z,11.50
2018-06-08T08:11:40.877Z,11.70
2018-06-08T08:12:40.562Z,12.10
2018-06-08T08:13:40.626Z,12.50
2018-06-08T08:14:40.690Z,12.50
2018-06-08T08:15:40.759Z,12.60
2018-06-08T08:16:40.824Z,13.10
2018-06-08T08:17:41.231Z,12.60
2018-06-08T08:18:40.953Z,12.70
2018-06-08T08:19:41.019Z,12.40
2018-06-08T08:20:41.085Z,13.20
2018-06-08T08:21:41.150Z,12.90
2018-06-08T08:22:41.216Z,12.80
2018-06-08T08:23:41.284Z,13.30
2018-06-08T08:24:41.347Z,13.70
2018-06-08T08:25:41.436Z,13.20
2018-06-08T08:26:41.478Z,14.30
2018-06-08T08:27:41.544Z,13.80
2018-06-08T08:28:41.610Z,12.90
2018-06-08T08:29:41.675Z,12.90
2018-06-08T08:30:41.742Z,13.80
2018-06-08T08:31:41.807Z,13.60
2018-06-08T08:32:41.872Z,13.80
2018-06-08T08:33:41.938Z,13.10
2018-06-08T08:34:42.005Z,13.40
2018-06-08T08:35:42.071Z,12.90
2018-06-08T08:36:42.138Z,13.60
2018-06-08T08:37:42.202Z,13.10
2018-06-08T08:38:42.269Z,13.70
2018-06-08T08:39:42.384Z,13.10
2018-06-08T08:40:42.403Z,13.40
2018-06-08T08:41:42.468Z,14.00
2018-06-08T08:42:42.535Z,14.60
2018-06-08T08:43:42.602Z,13.50
2018-06-08T08:44:42.670Z,13.90
2018-06-08T08:45:43.577Z,14.20
2018-06-08T08:46:42.802Z,13.10
2018-06-08T08:47:42.868Z,14.40
2018-06-08T08:48:42.937Z,14.50
2018-06-08T08:49:43.002Z,14.00
2018-06-08T08:50:43.757Z,16.10
2018-06-08T08:51:43.148Z,15.50
2018-06-08T08:52:43.205Z,15.70
2018-06-08T08:53:43.271Z,14.30
2018-06-08T08:54:43.372Z,14.40
2018-06-08T08:55:43.408Z,14.50
2018-06-08T08:56:43.519Z,15.10
2018-06-08T08:57:43.542Z,14.50
2018-06-08T08:58:43.611Z,15.00
2018-06-08T08:59:43.681Z,14.40
2018-06-08T09:00:43.748Z,13.70
2018-06-08T09:01:43.818Z,14.60
2018-06-08T09:02:43.884Z,14.50
2018-06-08T09:03:43.954Z,14.30
2018-06-08T09:04:44.021Z,14.80
2018-06-08T09:05:44.088Z,15.40
2018-06-08T09:06:44.171Z,15.10
2018-06-08T09:07:44.226Z,15.60
2018-06-08T09:08:44.294Z,16.10
2018-06-08T09:09:44.362Z,15.40
2018-06-08T09:10:44.433Z,16.30
2018-06-08T09:11:44.503Z,15.80
2018-06-08T09:12:44.567Z,15.00
2018-06-08T09:13:44.635Z,15.10
2018-06-08T09:14:44.705Z,15.30
2018-06-08T09:15:44.774Z,15.00
2018-06-08T09:16:44.842Z,15.40
2018-06-08T09:17:44.910Z,15.10
2018-06-08T09:18:44.986Z,15.40
2018-06-08T09:19:45.050Z,15.90
2018-06-08T09:20:45.119Z,16.60
2018-06-08T09:21:45.187Z,16.00
2018-06-08T09:22:45.257Z,16.10
2018-06-08T09:23:45.326Z,16.10
2018-06-08T09:24:45.395Z,15.70
2018-06-08T09:25:45.478Z,16.20
2018-06-08T09:26:45.533Z,16.20
2018-06-08T09:27:45.912Z,15.90
2018-06-08T09:28:45.680Z,15.90
2018-06-08T09:29:45.751Z,16.90
2018-06-08T09:30:46.150Z,18.60
2018-06-08T09:31:46.190Z,16.90
2018-06-08T09:32:45.951Z,16.30
2018-06-08T09:33:46.017Z,16.20
2018-06-08T09:34:46.089Z,17.60
2018-06-08T09:35:46.159Z,17.50
2018-06-08T09:36:46.228Z,18.70
2018-06-08T09:37:46.297Z,18.90
2018-06-08T09:38:46.366Z,17.50
2018-06-08T09:39:46.440Z,15.70
2018-06-08T09:40:46.508Z,17.10
2018-06-08T09:41:46.577Z,18.40
2018-06-08T09:42:46.646Z,17.40
2018-06-08T09:43:46.718Z,17.30
2018-06-08T09:44:46.796Z,18.60
2018-06-08T09:45:46.858Z,17.10
2018-06-08T09:46:46.928Z,19.30
2018-06-08T09:47:47.002Z,19.20
2018-06-08T09:48:47.077Z,18.30
2018-06-08T09:49:47.152Z,19.50
2018-06-08T09:50:47.212Z,18.60
2018-06-08T09:51:47.283Z,20.10
2018-06-08T09:52:47.351Z,19.70
2018-06-08T09:53:47.420Z,18.40
2018-06-08T09:54:47.504Z,18.50
2018-06-08T09:55:47.580Z,16.80
2018-06-08T09:56:47.632Z,17.70
2018-06-08T09:57:47.702Z,18.70
2018-06-08T09:58:47.774Z,18.80
2018-06-08T09:59:47.845Z,19.20
2018-06-08T10:00:47.915Z,18.50
2018-06-08T10:01:47.985Z,19.60
2018-06-08T10:02:48.055Z,18.90
2018-06-08T10:03:48.129Z,19.00
2018-06-08T10:04:48.198Z,18.80
2018-06-08T10:05:48.267Z,23.00
2018-06-08T10:06:48.344Z,22.40
2018-06-08T10:07:48.413Z,22.20
2018-06-08T10:08:48.480Z,23.30
2018-06-08T10:09:48.555Z,22.00
2018-06-08T10:10:48.621Z,21.20
2018-06-08T10:11:48.691Z,21.70
2018-06-08T10:12:48.763Z,19.10
2018-06-08T10:13:48.831Z,22.10
2018-06-08T10:14:48.903Z,21.00
2018-06-08T10:15:48.974Z,21.10
2018-06-08T10:16:49.047Z,21.60
2018-06-08T10:17:49.115Z,21.80
2018-06-08T10:18:49.185Z,23.30
2018-06-08T10:19:49.255Z,24.20
2018-06-08T10:20:49.326Z,23.20
2018-06-08T10:21:49.396Z,22.00
2018-06-08T10:22:49.468Z,23.20
2018-06-08T10:23:49.537Z,22.40
2018-06-08T10:24:49.609Z,21.10
2018-06-08T10:25:49.696Z,21.70
2018-06-08T10:26:49.752Z,20.30
2018-06-08T10:27:49.824Z,23.20
2018-06-08T10:28:49.895Z,22.60
2018-06-08T10:29:49.970Z,22.00
2018-06-08T10:30:50.040Z,22.20
2018-06-08T10:31:50.113Z,22.50
2018-06-08T10:32:50.186Z,22.70
2018-06-08T10:33:50.257Z,21.10
2018-06-08T10:34:50.332Z,22.00
2018-06-08T10:35:50.407Z,24.60
2018-06-08T10:36:50.477Z,23.20
2018-06-08T10:37:50.549Z,22.50
2018-06-08T10:38:50.622Z,24.60
2018-06-08T10:39:50.810Z,23.50
2018-06-08T10:40:50.770Z,24.00
2018-06-08T10:41:50.843Z,22.80
2018-06-08T10:42:50.918Z,24.00
2018-06-08T10:43:50.989Z,24.10
2018-06-08T10:44:51.065Z,24.60
2018-06-08T10:45:51.137Z,25.40
2018-06-08T10:46:51.211Z,23.00
2018-06-08T10:47:51.284Z,23.10
2018-06-08T10:48:51.361Z,24.40
2018-06-08T10:49:51.430Z,23.50
2018-06-08T10:50:51.507Z,23.50
2018-06-08T10:51:51.586Z,23.30
2018-06-08T10:52:51.654Z,23.60
2018-06-08T10:53:51.728Z,23.00
2018-06-08T10:54:51.801Z,22.90
2018-06-08T10:55:51.878Z,20.90
2018-06-08T10:56:51.950Z,22.30
2018-06-08T10:57:52.025Z,23.10
2018-06-08T10:58:52.105Z,21.70
2018-06-08T10:59:52.177Z,21.70
2018-06-08T11:00:52.250Z,20.60
2018-06-08T11:01:52.323Z,20.40
2018-06-08T11:02:52.400Z,19.40
2018-06-08T11:03:52.484Z,20.30
2018-06-08T11:04:52.548Z,21.40
2018-06-08T11:05:52.623Z,20.20
2018-06-08T11:06:52.699Z,20.40
2018-06-08T11:07:52.776Z,20.40
2018-06-08T11:08:52.849Z,20.10
2018-06-08T11:09:52.924Z,19.60
2018-06-08T11:10:53.000Z,18.90
2018-06-08T11:11:53.077Z,20.00
2018-06-08T11:12:53.150Z,20.40
2018-06-08T11:13:53.227Z,20.30
2018-06-08T11:14:53.303Z,20.80
2018-06-08T11:15:53.379Z,20.70
2018-06-08T11:16:53.454Z,19.40
2018-06-08T11:17:53.530Z,19.20
2018-06-08T11:18:53.605Z,20.70
2018-06-08T11:19:53.686Z,19.10
2018-06-08T11:20:53.758Z,18.50
2018-06-08T11:21:53.834Z,18.60
2018-06-08T11:22:53.910Z,19.70
2018-06-08T11:23:53.985Z,18.60
2018-06-08T11:24:54.061Z,18.70
2018-06-08T11:25:54.137Z,17.60
2018-06-08T11:26:54.216Z,18.20
2018-06-08T11:27:54.290Z,17.40
2018-06-08T11:28:54.369Z,16.50
2018-06-08T11:29:54.442Z,18.40
2018-06-08T11:30:54.518Z,17.10
2018-06-08T11:31:54.594Z,16.70
2018-06-08T11:32:54.671Z,17.40
2018-06-08T11:33:54.745Z,17.50
2018-06-08T11:34:54.825Z,16.30
2018-06-08T11:35:54.898Z,16.30
2018-06-08T11:36:54.975Z,17.00
2018-06-08T11:37:55.050Z,15.30
2018-06-08T11:38:55.123Z,15.00
2018-06-08T11:39:55.201Z,15.70
2018-06-08T11:40:55.275Z,15.50
2018-06-08T11:41:55.352Z,15.80
2018-06-08T11:42:55.425Z,15.50
2018-06-08T11:43:55.516Z,16.00
2018-06-08T11:44:55.574Z,16.70
2018-06-08T11:45:55.707Z,15.20
2018-06-08T11:46:55.722Z,14.50
2018-06-08T11:47:55.800Z,15.80
2018-06-08T11:48:55.873Z,13.90
2018-06-08T11:49:55.945Z,14.80
2018-06-08T11:50:56.018Z,14.10
2018-06-08T11:51:56.092Z,14.70
2018-06-08T11:52:56.168Z,15.00
2018-06-08T11:53:56.238Z,14.40
2018-06-08T11:54:56.315Z,13.90
2018-06-08T11:55:56.391Z,15.00
2018-06-08T11:56:56.465Z,15.30
2018-06-08T11:57:56.538Z,14.50
2018-06-08T11:58:56.615Z,14.30
2018-06-08T11:59:56.686Z,13.90
2018-06-08T12:00:56.765Z,13.60
2018-06-08T12:01:56.835Z,13.10
2018-06-08T12:02:56.908Z,12.80
2018-06-08T12:03:56.982Z,12.50
2018-06-08T12:04:57.057Z,13.50
2018-06-08T12:05:57.130Z,13.70
2018-06-08T12:06:57.204Z,14.20
2018-06-08T12:07:57.278Z,13.40
2018-06-08T12:08:57.394Z,13.20
2018-06-08T12:09:57.423Z,13.50
2018-06-08T12:10:57.497Z,13.70
2018-06-08T12:11:57.571Z,13.00
2018-06-08T12:12:57.645Z,12.80
2018-06-08T12:13:57.717Z,13.20
2018-06-08T12:14:57.791Z,13.90
2018-06-08T12:15:57.865Z,13.30
2018-06-08T12:16:57.938Z,12.70
2018-06-08T12:17:58.010Z,13.20
2018-06-08T12:18:58.084Z,12.70
2018-06-08T12:19:58.155Z,12.30
2018-06-08T12:20:58.228Z,13.00
2018-06-08T12:21:58.303Z,12.60
2018-06-08T12:22:58.373Z,13.50
2018-06-08T12:23:58.446Z,13.80
2018-06-08T12:24:58.518Z,13.70
2018-06-08T12:25:58.588Z,12.80
2018-06-08T12:26:58.661Z,12.90
2018-06-08T12:27:58.732Z,13.20
2018-06-08T12:28:58.804Z,12.90
2018-06-08T12:29:58.874Z,12.00
2018-06-08T12:30:58.946Z,12.20
2018-06-08T12:31:59.022Z,12.60
2018-06-08T12:32:59.090Z,12.30
2018-06-08T12:33:59.161Z,12.40
2018-06-08T12:34:59.233Z,12.50
2018-06-08T12:35:59.302Z,13.00
2018-06-08T12:36:59.373Z,13.30
2018-06-08T12:37:59.444Z,12.90
2018-06-08T12:38:59.515Z,13.70
2018-06-08T12:39:59.586Z,14.00
2018-06-08T12:40:59.656Z,13.80
2018-06-08T12:41:59.725Z,14.60
2018-06-08T12:42:59.797Z,13.90
2018-06-08T12:43:59.869Z,14.80
2018-06-08T12:44:59.939Z,14.60
2018-06-08T12:46:00.011Z,14.60
2018-06-08T12:47:00.081Z,14.40
2018-06-08T12:48:00.148Z,14.70
2018-06-08T12:49:00.275Z,14.20
2018-06-08T12:50:00.287Z,14.20
2018-06-08T12:51:00.357Z,13.90
2018-06-08T12:52:00.432Z,14.10
2018-06-08T12:53:00.498Z,13.80
2018-06-08T12:54:00.567Z,13.10
2018-06-08T12:55:00.638Z,13.60
2018-06-08T12:56:00.708Z,13.40
2018-06-08T12:57:00.779Z,13.60
2018-06-08T12:58:00.846Z,14.10
2018-06-08T12:59:00.918Z,13.30
2018-06-08T13:00:00.990Z,13.50
2018-06-08T13:01:01.058Z,13.20
2018-06-08T13:02:01.129Z,13.00
2018-06-08T13:03:01.198Z,12.70
2018-06-08T13:04:01.268Z,12.30